Amherst, OH

8:07 AM EDT on October 24, 2014 (GMT -0400)
Burke Lakefront | Change Station
CLOSE
Current Station
Airport
Location: Cleveland Burke,
Elevation: 584 ft
Nearby Weather Stations

Elev 584 ft 41.52 °N, 81.68 °W | Updated 14 minutes ago

Partly Cloudy
Partly Cloudy
45 °F
Feels Like 43 °F
N
5
Wind Variable Wind from SSE

Today
High -- | Low -- °F
--% Chance of Precip.
Yesterday
High -- | Low -- °F
Precip. -- in
7:51 AM 6:34 PM
New Moon, 0% visible
Pressure 30.10 in
Visibility 10.0 miles
Clouds Clear
Windchill 43 °F
Dew Point 38 °F
Humidity 76%
Rainfall 0.00 in
Snow Depth Not available.
UV 0 out of 12
Pollen 1.60 out of 12
Ozone Good
PM2.5 Moderate
Flu Activity Sporadic
METAR KBKL 241153Z 16004KT 10SM CLR 07/03 A3009 RMK AO2 SLP191 T00720033 10072 20061 50001

More Conditions Fewer Conditions

Pressure 30.10 in
Visibility 10.0 miles
Clouds Clear
Windchill 43 °F
Dew Point 38 °F
Humidity 76%
Rainfall 0.00 in
Snow Depth Not available.
UV 0 out of 12
Pollen 1.60 out of 12
Ozone Good
PM2.5 Moderate
Flu Activity Sporadic
METAR KBKL 241153Z 16004KT 10SM CLR 07/03 A3009 RMK AO2 SLP191 T00720033 10072 20061 50001

More Conditions Fewer Conditions

10-Day Weather Forecast

Almanac

Astronomy

Oct. 24, 2014 Rise Set
Actual Time 7:51 AM EDT 6:34 PM EDT
Civil Twilight 7:22 AM EDT 7:02 PM EDT
Nautical Twilight 6:50 AM EDT 7:35 PM EDT
Astronomical Twilight 6:18 AM EDT 8:07 PM EDT
Moon 8:29 AM EDT 7:13 PM EDT
Length of Visible Light 11h 40m
Length of Day
10h 43m
Tomorrow will be 2m 34s shorter.
New Moon, 0% of the Moon is Illuminated
Today
New Moon
Oct 30
First Quarter
Nov 6
Full
Nov 14
Last Quarter
Nov 22
New

Today's Extremes

State Highs State Lows

Community

WunderPhotos

Upload Photos

1,764,528 photos uploaded!

Nearby

Air Quality

  Air Quality AQ Index Pollutant
Yesterday Good
PM10
Yesterday Good
OZONE
Current Moderate
PM2.5
Current Good
OZONE
Friday Moderate
PM2.5
Friday Good
OZONE
Saturday Good
PM2.5
Saturday Good
OZONE
Sunday Good
PM2.5
Sunday Good
OZONE
Monday Good
PM2.5
Monday Good
OZONE

Snow Depth

Station Depth Elevation
No new snow has been reported.

Earthquake Activity

City Distance Mag. Time & Date
No recent earthquake activity has been reported nearby.
Minimum magnitude displayed is 2.5.

Coastal Water Temperatures

Place Temperature
Cleveland, OH 57.0 °F
Marblehead, OH 52.0 °F
Fairport, OH 52.0 °F

Nearby Weather Stations